Time;durP1;ratioP1;P1;durP2;ratioP2;P2;SDS_P1;SDS_P2;PMS_P1;PMS_P2;Temp;Humidity;BMP_temperature;BMP_pressure;BME280_temperature;BME280_humidity;BME280_pressure;Samples;Min_cycle;Max_cycle;Signal;HPM_P1;HPM_P2
2021/06/18 00:00:15;;;;;;;5.47;5.07;;;22.80;99.90;;;;;;5110717;27;20223;-52
2021/06/18 00:02:42;;;;;;;6.73;5.40;;;22.80;99.90;;;;;;5116258;27;20207;-44
2021/06/18 00:05:12;;;;;;;5.70;5.20;;;22.70;99.90;;;;;;5122355;27;20189;-51
2021/06/18 00:07:42;;;;;;;5.90;5.40;;;22.60;99.90;;;;;;5116673;27;20223;-47
2021/06/18 00:10:11;;;;;;;5.30;4.80;;;22.50;99.90;;;;;;5124223;27;20557;-54
2021/06/18 00:12:38;;;;;;;6.17;5.10;;;22.60;99.90;;;;;;5122104;27;20204;-44
2021/06/18 00:15:07;;;;;;;5.93;5.27;;;22.60;99.90;;;;;;5110852;27;20611;-52
2021/06/18 00:17:33;;;;;;;7.37;5.60;;;22.60;99.90;;;;;;5113357;27;20889;-45
2021/06/18 00:20:00;;;;;;;5.87;5.40;;;22.50;99.90;;;;;;5124534;27;20211;-45
2021/06/18 00:22:28;;;;;;;6.07;5.50;;;22.40;99.90;;;;;;5113991;27;20216;-55
2021/06/18 00:24:57;;;;;;;6.70;5.77;;;22.40;99.90;;;;;;5124900;27;20189;-49
2021/06/18 00:27:23;;;;;;;9.50;5.83;;;22.30;99.90;;;;;;5121499;27;20793;-53
2021/06/18 00:29:50;;;;;;;5.60;5.10;;;22.30;99.90;;;;;;5110459;27;20287;-45
2021/06/18 00:32:17;;;;;;;6.87;5.07;;;22.20;99.90;;;;;;5117282;27;20223;-55
2021/06/18 00:34:46;;;;;;;5.97;5.47;;;22.20;99.90;;;;;;5111678;27;20948;-46
2021/06/18 00:37:13;;;;;;;7.83;5.63;;;22.20;99.90;;;;;;5115812;27;20212;-52
2021/06/18 00:39:41;;;;;;;8.40;5.90;;;22.20;99.90;;;;;;5121492;27;20181;-51
2021/06/18 00:42:08;;;;;;;7.77;6.03;;;22.10;99.90;;;;;;5124481;27;20239;-54
2021/06/18 00:44:35;;;;;;;6.43;5.93;;;22.00;99.90;;;;;;5106789;27;20216;-45
2021/06/18 00:47:02;;;;;;;8.10;5.57;;;22.10;99.90;;;;;;5124231;27;20193;-54
2021/06/18 00:49:29;;;;;;;5.57;5.20;;;22.10;99.90;;;;;;5119870;27;20198;-45
2021/06/18 00:51:57;;;;;;;5.83;5.10;;;22.10;99.90;;;;;;5117775;27;20213;-46
2021/06/18 00:54:29;;;;;;;6.97;6.17;;;22.10;99.90;;;;;;5121286;27;20684;-52
2021/06/18 00:56:58;;;;;;;5.63;5.23;;;22.00;99.90;;;;;;5124607;27;20241;-48
2021/06/18 00:59:25;;;;;;;8.17;5.83;;;21.90;99.90;;;;;;5108433;27;20193;-49
2021/06/18 01:01:52;;;;;;;7.43;5.70;;;21.90;99.90;;;;;;5122041;28;20216;-52
2021/06/18 01:04:20;;;;;;;6.50;5.80;;;21.80;99.90;;;;;;5122171;27;20192;-51
2021/06/18 01:06:53;;;;;;;6.33;5.73;;;21.70;99.90;;;;;;5123269;28;20475;-47
2021/06/18 01:09:21;;;;;;;6.30;5.80;;;21.80;99.90;;;;;;5114887;28;20546;-53
2021/06/18 01:11:58;;;;;;;8.87;6.40;;;21.70;99.90;;;;;;5119123;28;20213;-44
2021/06/18 01:14:33;;;;;;;6.57;5.97;;;21.60;99.90;;;;;;5121120;28;20188;-53
2021/06/18 01:17:06;;;;;;;6.43;5.83;;;21.60;99.90;;;;;;5110369;28;20207;-51
2021/06/18 01:19:42;;;;;;;7.20;6.57;;;21.60;99.90;;;;;;5119576;28;20931;-47
2021/06/18 01:22:12;;;;;;;7.07;6.37;;;21.60;99.90;;;;;;5123758;28;20220;-53
2021/06/18 01:24:51;;;;;;;7.00;6.40;;;21.50;99.90;;;;;;5115442;28;20204;-47
2021/06/18 01:27:42;;;;;;;6.67;6.03;;;21.40;99.90;;;;;;5122533;27;20188;-49
2021/06/18 01:30:13;;;;;;;7.77;6.97;;;21.40;99.90;;;;;;5117484;28;20763;-55
2021/06/18 01:32:42;;;;;;;6.83;6.33;;;21.30;99.90;;;;;;5112817;28;20218;-48
2021/06/18 01:35:15;;;;;;;6.87;6.17;;;21.30;99.90;;;;;;5122238;28;20220;-54
2021/06/18 01:37:47;;;;;;;7.80;7.00;;;21.30;99.90;;;;;;5121891;28;20192;-46
2021/06/18 01:40:15;;;;;;;6.83;6.13;;;21.20;99.90;;;;;;5115809;28;20228;-51
2021/06/18 01:42:43;;;;;;;7.57;6.90;;;21.20;99.90;;;;;;5117855;27;20227;-45
2021/06/18 01:45:14;;;;;;;7.33;6.70;;;21.10;99.90;;;;;;5101893;28;20580;-54
2021/06/18 01:47:43;;;;;;;8.17;6.90;;;21.10;99.90;;;;;;5097345;28;20197;-51
2021/06/18 01:50:15;;;;;;;6.80;6.10;;;21.10;99.90;;;;;;5117470;28;20193;-50
2021/06/18 01:52:44;;;;;;;6.67;6.13;;;21.00;99.90;;;;;;5123920;28;20205;-45
2021/06/18 01:55:13;;;;;;;7.40;6.13;;;21.00;99.90;;;;;;5100367;27;20201;-51
2021/06/18 01:57:41;;;;;;;7.27;6.57;;;21.00;99.90;;;;;;5107011;27;20200;-49
2021/06/18 02:00:08;;;;;;;8.47;7.07;;;20.90;99.90;;;;;;5107291;27;20526;-49
2021/06/18 02:02:44;;;;;;;7.77;6.80;;;20.90;99.90;;;;;;5113971;27;20232;-45
2021/06/18 02:05:12;;;;;;;7.83;6.83;;;20.80;99.90;;;;;;5123850;27;20193;-53
2021/06/18 02:07:39;;;;;;;7.27;6.57;;;20.90;99.90;;;;;;5126064;27;20677;-48
2021/06/18 02:10:08;;;;;;;8.93;6.67;;;20.90;99.90;;;;;;5122147;27;20189;-49
2021/06/18 02:12:35;;;;;;;7.10;6.50;;;20.90;99.90;;;;;;5120356;27;20299;-45
2021/06/18 02:15:05;;;;;;;7.33;6.60;;;20.90;99.90;;;;;;5125405;27;20555;-48
2021/06/18 02:17:34;;;;;;;7.63;6.63;;;20.80;99.90;;;;;;5101143;27;20208;-45
2021/06/18 02:20:05;;;;;;;9.27;7.10;;;20.80;99.90;;;;;;5124908;27;20207;-51
2021/06/18 02:22:31;;;;;;;7.63;7.03;;;20.70;99.90;;;;;;5125915;27;20213;-47
2021/06/18 02:24:59;;;;;;;8.30;7.30;;;20.60;99.90;;;;;;5125903;27;20185;-48
2021/06/18 02:27:26;;;;;;;7.90;7.20;;;20.50;99.90;;;;;;5118416;27;20200;-49
2021/06/18 02:29:53;;;;;;;6.67;6.00;;;20.50;99.90;;;;;;5104631;27;20205;-52
2021/06/18 02:32:21;;;;;;;7.80;7.07;;;20.50;99.90;;;;;;5117442;27;20287;-45
2021/06/18 02:34:49;;;;;;;7.57;6.83;;;20.50;99.90;;;;;;5113555;27;20197;-46
2021/06/18 02:37:17;;;;;;;8.47;7.17;;;20.40;99.90;;;;;;5122822;27;20919;-45
2021/06/18 02:39:44;;;;;;;6.93;6.23;;;20.40;99.90;;;;;;5126229;27;20189;-47
2021/06/18 02:42:11;;;;;;;7.33;6.83;;;20.40;99.90;;;;;;5094257;27;20228;-51
2021/06/18 02:44:39;;;;;;;8.57;7.07;;;20.40;99.90;;;;;;5106292;28;20224;-48
2021/06/18 02:47:10;;;;;;;7.40;6.70;;;20.50;99.90;;;;;;5100512;27;20201;-53
2021/06/18 02:49:44;;;;;;;7.27;6.63;;;20.50;99.90;;;;;;5112483;27;20219;-48
2021/06/18 02:52:15;;;;;;;11.80;8.57;;;20.40;99.90;;;;;;5122604;27;20207;-51
2021/06/18 02:54:46;;;;;;;9.23;8.27;;;20.30;99.90;;;;;;5126787;27;20189;-44
2021/06/18 02:57:20;;;;;;;9.77;8.87;;;20.30;99.90;;;;;;5116110;27;20812;-48
2021/06/18 02:59:57;;;;;;;11.33;8.87;;;20.30;99.90;;;;;;5125343;27;20196;-47
2021/06/18 03:02:30;;;;;;;10.13;9.13;;;20.30;99.90;;;;;;5123095;27;20204;-45
2021/06/18 03:04:58;;;;;;;9.20;8.30;;;20.30;99.90;;;;;;5111945;27;20215;-50
2021/06/18 03:07:28;;;;;;;10.03;8.63;;;20.30;99.90;;;;;;5122575;27;20180;-45
2021/06/18 03:10:00;;;;;;;10.77;9.77;;;20.20;99.90;;;;;;5124868;27;20684;-50
2021/06/18 03:12:28;;;;;;;11.13;10.13;;;20.20;99.90;;;;;;5123468;27;20215;-48
2021/06/18 03:15:01;;;;;;;11.30;10.07;;;20.20;99.90;;;;;;5117432;27;20203;-51
2021/06/18 03:17:29;;;;;;;10.20;9.30;;;20.20;99.90;;;;;;5123704;27;20188;-46
2021/06/18 03:19:59;;;;;;;7.20;6.47;;;20.20;99.90;;;;;;5121367;27;20197;-52
2021/06/18 03:22:27;;;;;;;8.07;7.30;;;20.20;99.90;;;;;;5116320;27;20239;-46
2021/06/18 03:24:58;;;;;;;8.03;7.33;;;20.20;99.90;;;;;;5123915;27;20192;-49
2021/06/18 03:27:25;;;;;;;7.87;7.23;;;20.20;99.90;;;;;;5113399;27;20775;-48
2021/06/18 03:29:54;;;;;;;7.73;7.03;;;20.20;99.90;;;;;;5115650;27;20196;-49
2021/06/18 03:32:21;;;;;;;8.23;7.53;;;20.10;99.90;;;;;;5121993;27;20285;-47
2021/06/18 03:34:48;;;;;;;9.23;8.33;;;20.10;99.90;;;;;;5125137;27;20185;-45
2021/06/18 03:37:16;;;;;;;8.80;8.00;;;20.20;99.90;;;;;;5101032;27;20219;-47
2021/06/18 03:39:43;;;;;;;11.07;9.97;;;20.20;99.90;;;;;;5123916;27;20690;-44
2021/06/18 03:42:12;;;;;;;10.67;9.57;;;20.20;99.90;;;;;;5112225;27;20336;-48
2021/06/18 03:44:39;;;;;;;11.30;9.67;;;20.20;99.90;;;;;;5120917;27;20216;-48
2021/06/18 03:47:07;;;;;;;10.80;9.20;;;20.20;99.90;;;;;;5114759;27;20200;-45
2021/06/18 03:49:35;;;;;;;9.00;8.10;;;20.20;99.90;;;;;;5124853;27;20195;-46
2021/06/18 03:52:02;;;;;;;7.70;6.87;;;20.20;99.90;;;;;;5107224;27;20220;-45
2021/06/18 03:54:32;;;;;;;8.93;7.73;;;20.20;99.90;;;;;;5123801;27;20196;-49
2021/06/18 03:57:00;;;;;;;8.93;8.03;;;20.20;99.90;;;;;;5117245;27;20193;-48
2021/06/18 03:59:31;;;;;;;8.17;7.37;;;20.20;99.90;;;;;;5104335;28;20689;-47
2021/06/18 04:01:59;;;;;;;8.07;7.47;;;20.20;99.90;;;;;;5105472;27;20226;-49
2021/06/18 04:04:31;;;;;;;9.23;7.77;;;20.20;99.90;;;;;;5116780;27;20197;-48
2021/06/18 04:06:58;;;;;;;7.30;6.77;;;20.30;99.90;;;;;;5097574;27;20205;-50
2021/06/18 04:09:25;;;;;;;9.67;7.53;;;20.30;99.90;;;;;;5124280;27;20280;-45
2021/06/18 04:11:52;;;;;;;10.67;8.30;;;20.30;99.90;;;;;;5120683;27;20200;-49
2021/06/18 04:14:18;;;;;;;9.30;8.23;;;20.30;99.90;;;;;;5124205;27;20193;-47
2021/06/18 04:16:46;;;;;;;9.77;8.83;;;20.40;99.90;;;;;;5116743;27;20193;-48
2021/06/18 04:19:14;;;;;;;9.67;8.10;;;20.40;99.90;;;;;;5110446;27;20196;-46
2021/06/18 04:21:44;;;;;;;8.60;7.87;;;20.40;99.90;;;;;;5122990;27;20211;-48
2021/06/18 04:24:12;;;;;;;10.07;8.70;;;20.50;99.90;;;;;;5113466;27;20201;-46
2021/06/18 04:26:38;;;;;;;8.70;7.90;;;20.50;99.90;;;;;;5124717;27;20200;-48
2021/06/18 04:29:05;;;;;;;8.13;7.33;;;20.50;99.90;;;;;;5109376;27;20205;-46
2021/06/18 04:31:32;;;;;;;9.43;8.57;;;20.50;99.90;;;;;;5104107;27;20224;-48
2021/06/18 04:34:00;;;;;;;9.73;8.13;;;20.60;99.90;;;;;;5112324;27;20232;-48
2021/06/18 04:36:26;;;;;;;8.70;7.87;;;20.60;99.90;;;;;;5124096;27;20228;-44
2021/06/18 04:38:53;;;;;;;8.33;7.40;;;20.60;99.90;;;;;;5119040;27;20201;-54
2021/06/18 04:41:20;;;;;;;8.70;7.83;;;20.70;99.90;;;;;;5138316;27;20334;-44
2021/06/18 04:43:47;;;;;;;9.00;8.10;;;20.70;99.90;;;;;;5134817;27;20188;-54
2021/06/18 04:46:13;;;;;;;8.80;7.90;;;20.80;99.90;;;;;;5130238;27;20205;-46
2021/06/18 04:48:40;;;;;;;10.30;8.30;;;20.80;99.90;;;;;;5128124;27;20201;-53
2021/06/18 04:51:08;;;;;;;8.90;7.97;;;20.80;99.90;;;;;;5121745;27;20888;-46
2021/06/18 04:53:35;;;;;;;9.47;8.23;;;20.90;99.90;;;;;;5117984;27;20204;-56
2021/06/18 04:56:02;;;;;;;8.90;8.17;;;20.90;99.90;;;;;;5104319;27;20205;-46
2021/06/18 04:58:29;;;;;;;9.20;8.40;;;20.90;99.90;;;;;;5124570;27;20645;-46
2021/06/18 05:00:56;;;;;;;8.63;7.83;;;21.00;99.90;;;;;;5127756;27;20216;-44
2021/06/18 05:03:23;;;;;;;13.63;8.20;;;21.10;99.90;;;;;;5113912;27;20216;-49
2021/06/18 05:05:49;;;;;;;12.30;7.90;;;21.10;99.90;;;;;;5121431;27;20573;-52
2021/06/18 05:08:17;;;;;;;8.73;7.83;;;21.20;99.90;;;;;;5113939;28;20193;-45
2021/06/18 05:10:44;;;;;;;9.23;8.30;;;21.20;99.90;;;;;;5094683;28;20207;-52
2021/06/18 05:13:11;;;;;;;9.53;8.63;;;21.30;99.90;;;;;;5121277;28;20177;-44
2021/06/18 05:15:37;;;;;;;9.47;8.67;;;21.30;99.90;;;;;;5123338;28;20226;-53
2021/06/18 05:18:04;;;;;;;9.67;8.47;;;21.40;99.90;;;;;;5110673;28;20185;-45
2021/06/18 05:20:31;;;;;;;9.20;8.13;;;21.60;99.90;;;;;;5111638;28;20673;-43
2021/06/18 05:22:58;;;;;;;10.97;7.87;;;21.70;99.90;;;;;;5125512;27;20204;-64
2021/06/18 05:25:26;;;;;;;11.00;8.83;;;21.70;99.90;;;;;;5103457;27;20264;-64
2021/06/18 05:27:53;;;;;;;12.07;8.70;;;21.70;99.90;;;;;;5107127;27;20196;-64
2021/06/18 05:30:21;;;;;;;9.20;8.10;;;21.80;99.90;;;;;;5112111;27;20205;-64
2021/06/18 05:32:49;;;;;;;8.27;7.50;;;21.90;99.90;;;;;;5122418;27;20228;-63
2021/06/18 05:35:16;;;;;;;7.27;6.70;;;21.90;99.90;;;;;;5132856;27;20206;-64
2021/06/18 05:37:43;;;;;;;9.13;8.23;;;22.00;99.90;;;;;;5148244;27;20215;-64
2021/06/18 05:40:10;;;;;;;9.60;7.87;;;22.00;99.90;;;;;;5132142;27;20259;-64
2021/06/18 05:42:38;;;;;;;9.33;8.37;;;22.10;99.90;;;;;;5131062;27;20652;-64
2021/06/18 05:45:06;;;;;;;8.27;7.40;;;22.20;99.90;;;;;;5111655;27;20201;-65
2021/06/18 05:47:33;;;;;;;9.10;7.13;;;22.30;99.90;;;;;;5108154;28;20196;-65
2021/06/18 05:50:00;;;;;;;9.63;7.83;;;22.40;99.90;;;;;;5101124;27;20188;-63
2021/06/18 05:52:26;;;;;;;8.87;7.97;;;22.40;99.90;;;;;;5119025;27;20212;-64
2021/06/18 05:54:53;;;;;;;8.60;6.80;;;22.40;99.90;;;;;;5114536;27;20211;-63
2021/06/18 05:57:20;;;;;;;7.40;6.63;;;22.50;99.90;;;;;;5127550;27;20213;-64
2021/06/18 05:59:48;;;;;;;9.43;6.53;;;22.50;99.90;;;;;;5125073;27;20680;-63
2021/06/18 06:02:14;;;;;;;8.17;7.57;;;22.60;99.90;;;;;;5121632;27;20212;-64
2021/06/18 06:04:41;;;;;;;7.73;7.00;;;22.60;99.90;;;;;;5122719;27;20200;-63
2021/06/18 06:07:08;;;;;;;10.13;7.37;;;22.70;99.90;;;;;;5136988;27;20200;-64
2021/06/18 06:09:34;;;;;;;8.27;7.33;;;22.80;99.90;;;;;;5129773;27;20196;-64
2021/06/18 06:12:01;;;;;;;10.27;7.63;;;22.90;99.90;;;;;;5099366;27;20358;-64
2021/06/18 06:14:28;;;;;;;7.97;7.17;;;23.00;99.90;;;;;;5150939;27;20568;-65
2021/06/18 06:16:56;;;;;;;10.50;7.23;;;23.10;99.90;;;;;;5114662;27;20581;-64
2021/06/18 06:19:23;;;;;;;8.97;6.77;;;23.10;99.90;;;;;;5126830;27;20193;-64
2021/06/18 06:21:49;;;;;;;7.87;7.00;;;23.20;99.90;;;;;;5123868;27;20223;-64
2021/06/18 06:24:16;;;;;;;9.17;7.07;;;23.30;99.90;;;;;;5125808;27;20684;-63
2021/06/18 06:26:42;;;;;;;7.33;6.63;;;23.50;99.90;;;;;;5109273;27;20197;-62
2021/06/18 06:29:09;;;;;;;8.20;6.47;;;23.70;99.90;;;;;;5100087;27;20213;-64
2021/06/18 06:31:36;;;;;;;10.13;6.90;;;23.70;99.90;;;;;;5130775;27;20228;-65
2021/06/18 06:34:04;;;;;;;9.73;7.03;;;23.80;99.90;;;;;;5106609;27;20221;-64
2021/06/18 06:36:31;;;;;;;11.80;6.80;;;23.80;99.90;;;;;;5130077;27;20196;-64
2021/06/18 06:38:58;;;;;;;7.43;6.73;;;23.90;99.90;;;;;;5119271;27;20204;-64
2021/06/18 06:41:24;;;;;;;7.07;6.37;;;24.00;99.90;;;;;;5128264;27;20276;-64
2021/06/18 06:43:51;;;;;;;8.50;6.87;;;24.00;99.90;;;;;;5124533;27;20204;-63
2021/06/18 06:46:20;;;;;;;8.00;7.17;;;24.10;99.90;;;;;;5131781;27;20216;-64
2021/06/18 06:48:47;;;;;;;6.90;6.23;;;24.20;99.90;;;;;;5103426;27;20558;-56
2021/06/18 06:51:15;;;;;;;8.30;7.07;;;24.30;99.90;;;;;;5120823;27;20863;-53
2021/06/18 06:53:42;;;;;;;7.95;7.25;;;24.40;99.90;;;;;;5094986;27;20201;-49
2021/06/18 06:56:09;;;;;;;8.35;7.55;;;24.50;99.90;;;;;;5124571;27;20206;-45
2021/06/18 06:58:36;;;;;;;7.97;7.18;;;24.60;99.90;;;;;;5109126;27;20205;-53
2021/06/18 07:01:02;;;;;;;9.20;7.75;;;24.70;99.90;;;;;;5127677;27;20241;-52
2021/06/18 07:03:29;;;;;;;7.47;6.80;;;24.80;99.90;;;;;;5126731;27;20217;-56
2021/06/18 07:05:56;;;;;;;7.82;7.10;;;24.80;99.90;;;;;;5115027;27;20201;-48
2021/06/18 07:08:25;;;;;;;6.93;6.35;;;24.80;99.90;;;;;;5110846;27;20671;-53
2021/06/18 07:10:53;;;;;;;8.18;7.25;;;24.90;99.90;;;;;;5127178;27;20299;-45
2021/06/18 07:13:20;;;;;;;7.93;7.18;;;25.00;99.90;;;;;;5112754;27;20197;-55
2021/06/18 07:15:47;;;;;;;7.30;6.65;;;25.10;99.90;;;;;;5108225;27;20212;-53
2021/06/18 07:18:15;;;;;;;8.73;7.82;;;25.10;99.90;;;;;;5114541;27;20193;-44
2021/06/18 07:20:42;;;;;;;8.30;6.90;;;25.10;99.90;;;;;;5104572;27;20193;-49
2021/06/18 07:23:09;;;;;;;7.95;7.15;;;25.20;99.90;;;;;;5117557;27;20217;-45
2021/06/18 07:25:37;;;;;;;7.95;7.35;;;25.20;99.90;;;;;;5108345;27;20800;-48
2021/06/18 07:28:05;;;;;;;7.63;6.93;;;25.30;99.90;;;;;;5112327;27;20219;-48
2021/06/18 07:30:32;;;;;;;8.05;7.38;;;25.40;99.90;;;;;;5100819;27;20200;-57
2021/06/18 07:32:58;;;;;;;9.25;7.45;;;25.50;99.90;;;;;;5117011;27;20287;-49
2021/06/18 07:35:26;;;;;;;7.97;7.10;;;25.60;99.90;;;;;;5108878;27;20205;-55
2021/06/18 07:37:53;;;;;;;8.52;6.70;;;25.70;99.90;;;;;;5120506;27;21041;-49
2021/06/18 07:40:20;;;;;;;8.48;6.95;;;25.70;99.90;;;;;;5114439;27;20741;-54
2021/06/18 07:42:49;;;;;;;7.78;7.10;;;25.80;99.90;;;;;;5109932;27;20216;-47
2021/06/18 07:45:16;;;;;;;8.20;7.38;;;25.90;99.90;;;;;;5104642;27;20209;-56
2021/06/18 07:47:44;;;;;;;8.07;7.28;;;26.10;99.90;;;;;;5115517;27;20184;-50
2021/06/18 07:50:13;;;;;;;9.80;7.82;;;26.20;99.90;;;;;;5116543;27;20268;-46
2021/06/18 07:52:40;;;;;;;7.70;7.00;;;26.30;99.90;;;;;;5107785;27;20208;-48
2021/06/18 07:55:10;;;;;;;6.93;6.32;;;26.40;99.30;;;;;;5107289;27;20197;-48
2021/06/18 07:57:37;;;;;;;8.68;7.75;;;26.50;99.20;;;;;;5108127;27;20823;-46
2021/06/18 08:00:06;;;;;;;7.47;6.50;;;26.50;98.90;;;;;;5113724;27;20293;-55
2021/06/18 08:02:37;;;;;;;7.50;6.40;;;26.60;98.00;;;;;;5105265;27;20221;-48
2021/06/18 08:05:05;;;;;;;7.68;7.07;;;26.60;97.70;;;;;;5115096;27;20212;-54
2021/06/18 08:07:32;;;;;;;7.57;6.90;;;26.70;97.00;;;;;;5103703;27;20205;-55
2021/06/18 08:09:58;;;;;;;7.25;6.70;;;26.80;96.70;;;;;;5129882;27;20203;-49
2021/06/18 08:12:25;;;;;;;7.88;6.80;;;26.80;96.20;;;;;;5125685;27;20219;-55
2021/06/18 08:14:52;;;;;;;8.18;7.38;;;26.80;96.00;;;;;;5108939;27;20280;-56
2021/06/18 08:17:20;;;;;;;8.07;7.28;;;26.90;95.40;;;;;;5105551;27;20196;-54
2021/06/18 08:19:46;;;;;;;7.25;6.57;;;27.00;95.10;;;;;;5109910;27;20197;-57
2021/06/18 08:22:13;;;;;;;8.68;6.97;;;27.00;95.30;;;;;;5112166;27;20261;-47
2021/06/18 08:24:40;;;;;;;8.05;7.32;;;27.10;95.10;;;;;;5114245;27;20574;-57
2021/06/18 08:27:07;;;;;;;7.75;7.05;;;27.20;94.30;;;;;;5111863;27;20203;-50
2021/06/18 08:29:34;;;;;;;9.23;6.72;;;27.40;93.60;;;;;;5107965;27;20204;-50
2021/06/18 08:32:00;;;;;;;7.90;7.10;;;27.40;93.10;;;;;;5100046;27;20229;-52
2021/06/18 08:34:29;;;;;;;10.68;6.78;;;27.50;93.40;;;;;;5115261;27;20196;-50
2021/06/18 08:36:55;;;;;;;7.63;6.90;;;27.70;93.30;;;;;;5109869;27;20196;-58
2021/06/18 08:39:23;;;;;;;6.85;6.30;;;27.80;93.20;;;;;;5128184;27;20203;-50
2021/06/18 08:41:50;;;;;;;7.25;6.50;;;27.90;93.10;;;;;;5109361;27;20217;-50
2021/06/18 08:44:17;;;;;;;7.60;6.93;;;28.00;92.70;;;;;;5121747;27;20571;-46
2021/06/18 08:46:43;;;;;;;7.40;6.70;;;28.10;92.00;;;;;;5115295;27;20209;-57
2021/06/18 08:49:10;;;;;;;7.68;6.95;;;28.20;91.70;;;;;;5116560;27;20227;-46
2021/06/18 08:51:38;;;;;;;6.90;6.30;;;28.30;91.30;;;;;;5118438;27;20570;-57
2021/06/18 08:54:05;;;;;;;7.28;6.55;;;28.30;91.30;;;;;;5131976;27;20701;-47
2021/06/18 08:56:32;;;;;;;7.05;6.53;;;28.40;91.40;;;;;;5109744;27;20197;-57
2021/06/18 08:58:59;;;;;;;7.28;6.70;;;28.40;90.60;;;;;;5107762;27;20193;-47
2021/06/18 09:01:25;;;;;;;7.90;6.95;;;28.50;90.10;;;;;;5105819;27;20224;-56
2021/06/18 09:03:55;;;;;;;7.15;6.55;;;28.60;90.20;;;;;;5101960;27;20217;-51
2021/06/18 09:06:32;;;;;;;8.73;6.18;;;28.70;90.40;;;;;;5121829;27;20813;-46
2021/06/18 09:09:18;;;;;;;7.82;7.07;;;28.80;89.50;;;;;;5115199;27;20202;-46
2021/06/18 09:11:48;;;;;;;8.70;6.60;;;28.90;88.90;;;;;;5124492;27;20215;-55
2021/06/18 09:14:31;;;;;;;8.00;6.72;;;28.90;87.40;;;;;;5127573;27;20552;-52
2021/06/18 09:17:10;;;;;;;7.63;6.95;;;29.00;85.80;;;;;;5122899;27;20239;-51
2021/06/18 09:19:39;;;;;;;7.28;6.53;;;29.00;85.20;;;;;;5103200;28;20200;-55
2021/06/18 09:22:08;;;;;;;7.47;6.07;;;29.00;84.50;;;;;;5116730;27;20270;-50
2021/06/18 09:24:39;;;;;;;7.80;7.18;;;29.20;85.40;;;;;;5106321;28;20212;-54
2021/06/18 09:27:06;;;;;;;7.93;7.10;;;29.40;85.40;;;;;;5125284;27;20219;-51
2021/06/18 09:29:34;;;;;;;7.95;7.15;;;29.50;85.20;;;;;;5107922;27;20215;-56
2021/06/18 09:32:03;;;;;;;8.40;7.63;;;29.60;83.30;;;;;;5106843;27;20239;-54
2021/06/18 09:34:36;;;;;;;8.02;7.18;;;29.60;82.00;;;;;;5108369;27;20200;-56
2021/06/18 09:37:24;;;;;;;7.88;7.28;;;29.70;82.30;;;;;;5134812;27;20189;-49
2021/06/18 09:40:08;;;;;;;8.07;7.05;;;29.70;79.70;;;;;;5112030;28;20302;-49
2021/06/18 09:42:37;;;;;;;8.05;6.55;;;29.70;79.80;;;;;;5112467;28;20216;-56
2021/06/18 09:45:09;;;;;;;7.07;6.57;;;29.80;80.50;;;;;;5109198;27;20210;-46
2021/06/18 09:47:36;;;;;;;7.57;6.88;;;29.80;79.00;;;;;;5100652;27;20208;-57
2021/06/18 09:50:05;;;;;;;7.85;7.25;;;29.80;79.00;;;;;;5111671;27;20207;-48
2021/06/18 09:52:33;;;;;;;9.35;8.40;;;29.80;79.50;;;;;;5110492;27;20763;-54
2021/06/18 09:55:00;;;;;;;8.70;7.90;;;29.80;81.70;;;;;;5105597;27;20204;-54
2021/06/18 09:57:39;;;;;;;8.13;7.53;;;29.70;83.30;;;;;;5112214;27;20274;-56
2021/06/18 10:00:08;;;;;;;8.18;7.38;;;29.70;84.00;;;;;;5105917;28;20669;-52
2021/06/18 10:02:39;;;;;;;8.82;8.13;;;29.80;84.60;;;;;;5108027;27;20254;-57
2021/06/18 10:05:08;;;;;;;9.02;8.32;;;29.80;84.00;;;;;;5100636;28;20213;-52
2021/06/18 10:07:35;;;;;;;11.55;8.30;;;29.70;84.40;;;;;;5113396;28;20199;-54
2021/06/18 10:10:04;;;;;;;11.50;7.32;;;29.80;84.80;;;;;;5104609;28;20202;-46
2021/06/18 10:12:31;;;;;;;8.48;7.68;;;29.80;84.10;;;;;;5098300;28;20228;-47
2021/06/18 10:15:06;;;;;;;8.68;8.07;;;29.90;83.30;;;;;;5116348;27;20199;-54
2021/06/18 10:17:33;;;;;;;9.32;8.38;;;29.90;84.30;;;;;;5116925;27;20207;-53
2021/06/18 10:20:00;;;;;;;8.70;7.90;;;30.00;83.80;;;;;;5114109;27;20682;-45
2021/06/18 10:22:28;;;;;;;7.05;6.45;;;30.20;83.90;;;;;;5106812;27;20993;-54
2021/06/18 10:24:59;;;;;;;8.73;7.65;;;30.30;82.50;;;;;;5115956;27;20215;-54
2021/06/18 10:27:32;;;;;;;8.40;7.78;;;30.40;81.00;;;;;;5113896;27;20761;-51
2021/06/18 10:30:27;;;;;;;8.27;7.60;;;30.40;80.30;;;;;;5103738;27;20208;-48
2021/06/18 10:32:56;;;;;;;7.60;6.90;;;30.40;79.60;;;;;;5115264;27;20221;-49
2021/06/18 10:35:59;;;;;;;7.47;6.75;;;30.50;78.80;;;;;;5103830;27;20197;-48
2021/06/18 10:38:28;;;;;;;8.50;7.63;;;30.70;78.90;;;;;;5075091;28;20201;-49
2021/06/18 10:40:57;;;;;;;8.60;7.65;;;30.70;78.50;;;;;;5062961;28;20214;-48
2021/06/18 10:43:34;;;;;;;9.40;8.35;;;30.60;78.70;;;;;;5101928;27;20223;-50
2021/06/18 10:46:28;;;;;;;9.40;8.48;;;30.60;80.60;;;;;;5110296;27;20278;-50
2021/06/18 10:49:06;;;;;;;8.75;7.80;;;30.70;80.60;;;;;;5103949;27;20263;-48
2021/06/18 10:51:38;;;;;;;11.02;8.55;;;30.80;80.80;;;;;;5103316;27;20636;-56
2021/06/18 10:54:08;;;;;;;9.32;8.35;;;30.90;81.00;;;;;;5108805;27;20193;-53
2021/06/18 10:56:55;;;;;;;9.10;7.88;;;31.00;80.20;;;;;;5112422;27;20207;-56
2021/06/18 10:59:28;;;;;;;8.35;7.60;;;31.10;78.10;;;;;;5119031;27;20201;-49
2021/06/18 11:01:57;;;;;;;8.43;7.75;;;31.10;78.50;;;;;;5107794;27;20295;-53
2021/06/18 11:04:41;;;;;;;8.50;7.68;;;31.10;78.20;;;;;;5123246;27;20748;-50
2021/06/18 11:07:22;;;;;;;9.30;8.30;;;31.10;76.60;;;;;;5114036;27;20259;-56
2021/06/18 11:09:50;;;;;;;7.85;7.25;;;31.00;76.90;;;;;;5117630;27;20860;-54
2021/06/18 11:12:37;;;;;;;7.57;7.07;;;31.00;76.00;;;;;;5124721;27;20299;-51
2021/06/18 11:15:07;;;;;;;7.80;6.90;;;31.20;75.10;;;;;;5113807;27;20185;-52
2021/06/18 11:17:48;;;;;;;8.35;7.55;;;31.10;75.00;;;;;;5104192;27;20212;-54
2021/06/18 11:20:17;;;;;;;8.38;7.78;;;31.20;73.90;;;;;;5108630;27;20208;-59
2021/06/18 11:22:48;;;;;;;7.95;7.22;;;31.10;73.90;;;;;;5115792;27;20212;-49
2021/06/18 11:25:52;;;;;;;8.63;7.65;;;31.20;73.90;;;;;;5114174;27;20209;-57
2021/06/18 11:28:52;;;;;;;8.82;7.07;;;31.30;73.30;;;;;;5112589;27;20197;-56
2021/06/18 11:31:38;;;;;;;7.78;7.28;;;31.40;74.80;;;;;;5100528;27;20258;-57
2021/06/18 11:34:07;;;;;;;7.80;7.20;;;31.50;72.70;;;;;;5113926;27;20217;-53
2021/06/18 11:36:44;;;;;;;7.70;6.80;;;31.50;72.10;;;;;;5108606;27;20208;-49
2021/06/18 11:39:15;;;;;;;8.05;7.40;;;31.60;71.20;;;;;;5118306;27;20595;-58
2021/06/18 11:41:48;;;;;;;7.47;6.97;;;31.70;72.00;;;;;;5124600;27;20236;-50
2021/06/18 11:44:19;;;;;;;8.23;7.35;;;31.90;71.10;;;;;;5129226;27;20215;-56
2021/06/18 11:46:46;;;;;;;8.02;7.30;;;32.10;69.10;;;;;;5125648;27;20209;-50
2021/06/18 11:49:19;;;;;;;7.07;6.57;;;32.10;68.70;;;;;;5100327;27;20279;-54
2021/06/18 11:51:47;;;;;;;7.47;6.97;;;32.10;67.70;;;;;;5110814;27;20811;-47
2021/06/18 11:54:29;;;;;;;7.55;6.95;;;32.10;66.60;;;;;;5119058;27;20558;-48
2021/06/18 11:57:00;;;;;;;7.85;7.15;;;32.10;67.70;;;;;;5125598;27;20203;-46
2021/06/18 11:59:27;;;;;;;7.85;7.25;;;32.30;67.40;;;;;;5098287;27;20738;-50
2021/06/18 12:01:54;;;;;;;7.78;7.05;;;32.40;66.10;;;;;;5105791;27;20273;-50
2021/06/18 12:04:22;;;;;;;8.80;7.93;;;32.40;64.50;;;;;;5106954;27;20221;-43
2021/06/18 12:06:48;;;;;;;7.20;6.55;;;32.70;64.50;;;;;;5102850;27;20193;-47
2021/06/18 12:09:17;;;;;;;7.90;7.30;;;32.70;63.70;;;;;;5119558;27;20200;-49
2021/06/18 12:11:46;;;;;;;7.38;6.80;;;32.60;61.90;;;;;;5106571;27;20659;-50
2021/06/18 12:14:14;;;;;;;7.40;6.80;;;32.70;61.60;;;;;;5105936;27;20205;-47
2021/06/18 12:16:43;;;;;;;7.95;7.25;;;32.70;61.30;;;;;;5106905;27;20554;-48
2021/06/18 12:19:23;;;;;;;8.07;7.38;;;32.60;61.50;;;;;;5103229;27;20289;-45
2021/06/18 12:22:01;;;;;;;6.55;6.15;;;32.70;61.40;;;;;;5117206;27;20243;-45
2021/06/18 12:24:30;;;;;;;7.70;6.97;;;32.70;62.80;;;;;;5125487;27;20222;-44
2021/06/18 12:26:58;;;;;;;9.60;7.40;;;32.90;60.70;;;;;;5122814;27;20190;-44
2021/06/18 12:29:26;;;;;;;6.97;6.57;;;32.90;60.00;;;;;;5099919;27;20214;-50
2021/06/18 12:31:54;;;;;;;7.32;6.78;;;32.90;60.40;;;;;;5101726;28;20225;-47
2021/06/18 12:34:23;;;;;;;7.55;6.80;;;33.00;61.20;;;;;;5111867;27;20191;-52
2021/06/18 12:36:57;;;;;;;6.90;6.45;;;33.20;61.40;;;;;;5108028;27;20261;-50
2021/06/18 12:39:24;;;;;;;7.75;6.95;;;33.40;60.50;;;;;;5118521;27;20257;-46
2021/06/18 12:41:51;;;;;;;8.13;7.28;;;33.40;59.60;;;;;;5119359;27;20213;-52
2021/06/18 12:44:28;;;;;;;8.15;7.32;;;33.40;59.00;;;;;;5130163;27;20219;-49
2021/06/18 12:46:59;;;;;;;7.57;6.88;;;33.40;59.60;;;;;;5134185;27;20199;-46
2021/06/18 12:49:31;;;;;;;7.40;6.75;;;33.60;59.80;;;;;;5143520;27;20665;-50
2021/06/18 12:52:15;;;;;;;7.63;6.88;;;33.90;59.10;;;;;;5115820;27;20228;-49
2021/06/18 12:54:43;;;;;;;8.10;7.00;;;34.10;58.60;;;;;;5118009;27;20191;-46
2021/06/18 12:57:23;;;;;;;8.23;7.07;;;34.30;58.00;;;;;;5120594;27;20857;-47